sensor_id;sensor_type;location;lat;lon;timestamp;temperature;humidity
68842;SHT35;55849;48.482;2.332;2023-07-31T00:02:55;22.45;58.43
68842;SHT35;55849;48.482;2.332;2023-07-31T00:05:57;22.45;58.38
68842;SHT35;55849;48.482;2.332;2023-07-31T00:08:58;22.44;58.71
68842;SHT35;55849;48.482;2.332;2023-07-31T00:12:01;22.45;58.62
68842;SHT35;55849;48.482;2.332;2023-07-31T00:15:04;22.48;58.50
68842;SHT35;55849;48.482;2.332;2023-07-31T00:18:05;22.48;58.36
68842;SHT35;55849;48.482;2.332;2023-07-31T00:21:07;22.50;58.58
68842;SHT35;55849;48.482;2.332;2023-07-31T00:24:08;22.50;58.73
68842;SHT35;55849;48.482;2.332;2023-07-31T00:27:11;22.48;59.26
68842;SHT35;55849;48.482;2.332;2023-07-31T00:30:13;22.51;59.24
68842;SHT35;55849;48.482;2.332;2023-07-31T00:33:15;22.51;59.10
68842;SHT35;55849;48.482;2.332;2023-07-31T00:36:16;22.51;59.03
68842;SHT35;55849;48.482;2.332;2023-07-31T00:39:19;22.50;59.01
68842;SHT35;55849;48.482;2.332;2023-07-31T00:42:22;22.48;58.86
68842;SHT35;55849;48.482;2.332;2023-07-31T00:45:23;22.47;58.89
68842;SHT35;55849;48.482;2.332;2023-07-31T00:48:27;22.45;58.28
68842;SHT35;55849;48.482;2.332;2023-07-31T00:51:28;22.45;58.06
68842;SHT35;55849;48.482;2.332;2023-07-31T00:54:30;22.39;58.27
68842;SHT35;55849;48.482;2.332;2023-07-31T00:57:34;22.39;58.41
68842;SHT35;55849;48.482;2.332;2023-07-31T01:00:37;22.40;58.49
68842;SHT35;55849;48.482;2.332;2023-07-31T01:03:39;22.39;58.29
68842;SHT35;55849;48.482;2.332;2023-07-31T01:06:45;22.39;58.08
68842;SHT35;55849;48.482;2.332;2023-07-31T01:10:03;22.37;58.37
68842;SHT35;55849;48.482;2.332;2023-07-31T01:13:07;22.34;58.46
68842;SHT35;55849;48.482;2.332;2023-07-31T01:16:09;22.33;58.44
68842;SHT35;55849;48.482;2.332;2023-07-31T01:19:11;22.33;58.67
68842;SHT35;55849;48.482;2.332;2023-07-31T01:22:40;22.33;58.41
68842;SHT35;55849;48.482;2.332;2023-07-31T01:26:00;22.30;58.52
68842;SHT35;55849;48.482;2.332;2023-07-31T01:29:11;22.33;58.48
68842;SHT35;55849;48.482;2.332;2023-07-31T01:32:18;22.33;58.48
68842;SHT35;55849;48.482;2.332;2023-07-31T01:35:20;22.30;58.40
68842;SHT35;55849;48.482;2.332;2023-07-31T01:38:21;22.27;58.60
68842;SHT35;55849;48.482;2.332;2023-07-31T01:41:24;22.26;58.59
68842;SHT35;55849;48.482;2.332;2023-07-31T01:44:26;22.26;58.70
68842;SHT35;55849;48.482;2.332;2023-07-31T01:47:27;22.26;58.86
68842;SHT35;55849;48.482;2.332;2023-07-31T01:50:29;22.26;58.68
68842;SHT35;55849;48.482;2.332;2023-07-31T01:53:31;22.24;58.87
68842;SHT35;55849;48.482;2.332;2023-07-31T01:56:34;22.21;58.92
68842;SHT35;55849;48.482;2.332;2023-07-31T01:59:36;22.19;58.85
68842;SHT35;55849;48.482;2.332;2023-07-31T02:02:37;22.19;59.02
68842;SHT35;55849;48.482;2.332;2023-07-31T02:05:44;22.19;59.06
68842;SHT35;55849;48.482;2.332;2023-07-31T02:08:45;22.20;58.94
68842;SHT35;55849;48.482;2.332;2023-07-31T02:11:48;22.16;59.04
68842;SHT35;55849;48.482;2.332;2023-07-31T02:14:50;22.16;59.01
68842;SHT35;55849;48.482;2.332;2023-07-31T02:17:51;22.16;59.17
68842;SHT35;55849;48.482;2.332;2023-07-31T02:20:53;22.14;59.15
68842;SHT35;55849;48.482;2.332;2023-07-31T02:23:54;22.14;59.29
68842;SHT35;55849;48.482;2.332;2023-07-31T02:26:57;22.14;59.27
68842;SHT35;55849;48.482;2.332;2023-07-31T02:29:59;22.13;59.46
68842;SHT35;55849;48.482;2.332;2023-07-31T02:33:01;22.08;59.53
68842;SHT35;55849;48.482;2.332;2023-07-31T02:36:03;22.06;59.43
68842;SHT35;55849;48.482;2.332;2023-07-31T02:39:04;22.08;59.65
68842;SHT35;55849;48.482;2.332;2023-07-31T02:42:07;22.09;59.65
68842;SHT35;55849;48.482;2.332;2023-07-31T02:45:09;22.08;59.66
68842;SHT35;55849;48.482;2.332;2023-07-31T02:48:11;22.05;59.91
68842;SHT35;55849;48.482;2.332;2023-07-31T02:51:12;22.03;60.36
68842;SHT35;55849;48.482;2.332;2023-07-31T02:54:14;22.02;62.09
68842;SHT35;55849;48.482;2.332;2023-07-31T02:57:17;21.99;63.04
68842;SHT35;55849;48.482;2.332;2023-07-31T03:00:19;21.99;63.12
68842;SHT35;55849;48.482;2.332;2023-07-31T03:03:20;21.96;65.73
68842;SHT35;55849;48.482;2.332;2023-07-31T03:06:22;21.96;65.03
68842;SHT35;55849;48.482;2.332;2023-07-31T03:09:23;21.93;65.69
68842;SHT35;55849;48.482;2.332;2023-07-31T03:12:27;21.93;64.75
68842;SHT35;55849;48.482;2.332;2023-07-31T03:15:29;21.91;66.01
68842;SHT35;55849;48.482;2.332;2023-07-31T03:18:30;21.86;67.15
68842;SHT35;55849;48.482;2.332;2023-07-31T03:21:32;21.89;67.06
68842;SHT35;55849;48.482;2.332;2023-07-31T03:24:33;21.86;66.96
68842;SHT35;55849;48.482;2.332;2023-07-31T03:27:36;21.86;67.54
68842;SHT35;55849;48.482;2.332;2023-07-31T03:30:38;21.84;67.75
68842;SHT35;55849;48.482;2.332;2023-07-31T03:33:39;21.85;67.55
68842;SHT35;55849;48.482;2.332;2023-07-31T03:36:41;21.86;67.71
68842;SHT35;55849;48.482;2.332;2023-07-31T03:39:43;21.81;66.31
68842;SHT35;55849;48.482;2.332;2023-07-31T03:42:46;21.82;67.91
68842;SHT35;55849;48.482;2.332;2023-07-31T03:45:47;21.78;66.60
68842;SHT35;55849;48.482;2.332;2023-07-31T03:48:49;21.78;66.35
68842;SHT35;55849;48.482;2.332;2023-07-31T03:51:51;21.73;67.08
68842;SHT35;55849;48.482;2.332;2023-07-31T03:54:52;21.71;67.41
68842;SHT35;55849;48.482;2.332;2023-07-31T03:57:55;21.73;66.02
68842;SHT35;55849;48.482;2.332;2023-07-31T04:00:57;21.67;66.22
68842;SHT35;55849;48.482;2.332;2023-07-31T04:03:59;21.64;66.01
68842;SHT35;55849;48.482;2.332;2023-07-31T04:07:00;21.61;65.06
68842;SHT35;55849;48.482;2.332;2023-07-31T04:10:03;21.60;65.66
68842;SHT35;55849;48.482;2.332;2023-07-31T04:13:06;21.54;65.22
68842;SHT35;55849;48.482;2.332;2023-07-31T04:16:08;21.53;66.14
68842;SHT35;55849;48.482;2.332;2023-07-31T04:19:09;21.50;65.12
68842;SHT35;55849;48.482;2.332;2023-07-31T04:22:11;21.50;65.83
68842;SHT35;55849;48.482;2.332;2023-07-31T04:25:13;21.46;65.55
68842;SHT35;55849;48.482;2.332;2023-07-31T04:28:16;21.44;64.04
68842;SHT35;55849;48.482;2.332;2023-07-31T04:31:17;21.44;65.34
68842;SHT35;55849;48.482;2.332;2023-07-31T04:34:19;21.43;64.51
68842;SHT35;55849;48.482;2.332;2023-07-31T04:37:20;21.41;64.66
68842;SHT35;55849;48.482;2.332;2023-07-31T04:40:22;21.40;64.29
68842;SHT35;55849;48.482;2.332;2023-07-31T04:43:25;21.39;64.02
68842;SHT35;55849;48.482;2.332;2023-07-31T04:46:26;21.39;64.29
68842;SHT35;55849;48.482;2.332;2023-07-31T04:49:28;21.39;64.38
68842;SHT35;55849;48.482;2.332;2023-07-31T04:52:30;21.36;65.30
68842;SHT35;55849;48.482;2.332;2023-07-31T04:55:31;21.34;63.88
68842;SHT35;55849;48.482;2.332;2023-07-31T04:58:34;21.32;64.03
68842;SHT35;55849;48.482;2.332;2023-07-31T05:01:36;21.33;64.58
68842;SHT35;55849;48.482;2.332;2023-07-31T05:04:37;21.29;63.88
68842;SHT35;55849;48.482;2.332;2023-07-31T05:07:39;21.27;64.08
68842;SHT35;55849;48.482;2.332;2023-07-31T05:10:40;21.27;64.79
68842;SHT35;55849;48.482;2.332;2023-07-31T05:13:43;21.27;63.82
68842;SHT35;55849;48.482;2.332;2023-07-31T05:16:45;21.27;64.52
68842;SHT35;55849;48.482;2.332;2023-07-31T05:19:47;21.27;64.11
68842;SHT35;55849;48.482;2.332;2023-07-31T05:22:48;21.26;64.30
68842;SHT35;55849;48.482;2.332;2023-07-31T05:25:50;21.25;64.58
68842;SHT35;55849;48.482;2.332;2023-07-31T05:28:53;21.26;64.34
68842;SHT35;55849;48.482;2.332;2023-07-31T05:31:54;21.29;64.93
68842;SHT35;55849;48.482;2.332;2023-07-31T05:34:56;21.27;65.25
68842;SHT35;55849;48.482;2.332;2023-07-31T05:37:57;21.26;64.44
68842;SHT35;55849;48.482;2.332;2023-07-31T05:40:59;21.26;64.34
68842;SHT35;55849;48.482;2.332;2023-07-31T05:44:02;21.27;64.50
68842;SHT35;55849;48.482;2.332;2023-07-31T05:47:04;21.25;64.66
68842;SHT35;55849;48.482;2.332;2023-07-31T05:50:06;21.25;65.21
68842;SHT35;55849;48.482;2.332;2023-07-31T05:53:08;21.25;65.60
68842;SHT35;55849;48.482;2.332;2023-07-31T05:56:10;21.26;65.01
68842;SHT35;55849;48.482;2.332;2023-07-31T05:59:13;21.23;65.16
68842;SHT35;55849;48.482;2.332;2023-07-31T06:02:15;21.22;64.71
68842;SHT35;55849;48.482;2.332;2023-07-31T06:05:17;21.23;64.95
68842;SHT35;55849;48.482;2.332;2023-07-31T06:08:18;21.25;64.82
68842;SHT35;55849;48.482;2.332;2023-07-31T06:11:20;21.20;65.04
68842;SHT35;55849;48.482;2.332;2023-07-31T06:14:24;21.25;64.63
68842;SHT35;55849;48.482;2.332;2023-07-31T06:17:25;21.25;64.81
68842;SHT35;55849;48.482;2.332;2023-07-31T06:20:27;21.25;64.86
68842;SHT35;55849;48.482;2.332;2023-07-31T06:23:29;21.23;64.85
68842;SHT35;55849;48.482;2.332;2023-07-31T06:26:30;21.29;64.89
68842;SHT35;55849;48.482;2.332;2023-07-31T06:29:35;21.26;64.85
68842;SHT35;55849;48.482;2.332;2023-07-31T06:32:36;21.27;65.03
68842;SHT35;55849;48.482;2.332;2023-07-31T06:35:38;21.30;64.82
68842;SHT35;55849;48.482;2.332;2023-07-31T06:38:40;21.32;64.99
68842;SHT35;55849;48.482;2.332;2023-07-31T06:41:42;21.34;64.73
68842;SHT35;55849;48.482;2.332;2023-07-31T06:44:45;21.40;64.92
68842;SHT35;55849;48.482;2.332;2023-07-31T06:47:47;21.39;64.59
68842;SHT35;55849;48.482;2.332;2023-07-31T06:50:48;21.39;64.66
68842;SHT35;55849;48.482;2.332;2023-07-31T06:53:50;21.39;64.30
68842;SHT35;55849;48.482;2.332;2023-07-31T06:56:52;21.37;64.49
68842;SHT35;55849;48.482;2.332;2023-07-31T06:59:55;21.40;64.68
68842;SHT35;55849;48.482;2.332;2023-07-31T07:02:56;21.43;64.69
68842;SHT35;55849;48.482;2.332;2023-07-31T07:05:58;21.46;64.79
68842;SHT35;55849;48.482;2.332;2023-07-31T07:08:59;21.47;64.57
68842;SHT35;55849;48.482;2.332;2023-07-31T07:12:01;21.49;64.96
68842;SHT35;55849;48.482;2.332;2023-07-31T07:15:05;21.49;64.95
68842;SHT35;55849;48.482;2.332;2023-07-31T07:18:07;21.51;64.73
68842;SHT35;55849;48.482;2.332;2023-07-31T07:21:10;21.53;64.57
68842;SHT35;55849;48.482;2.332;2023-07-31T07:24:15;21.54;64.23
68842;SHT35;55849;48.482;2.332;2023-07-31T07:27:17;21.50;64.60
68842;SHT35;55849;48.482;2.332;2023-07-31T07:30:20;21.58;64.98
68842;SHT35;55849;48.482;2.332;2023-07-31T07:33:22;21.57;64.74
68842;SHT35;55849;48.482;2.332;2023-07-31T07:36:23;21.60;64.36
68842;SHT35;55849;48.482;2.332;2023-07-31T07:39:25;21.62;64.61
68842;SHT35;55849;48.482;2.332;2023-07-31T07:42:26;21.64;64.17
68842;SHT35;55849;48.482;2.332;2023-07-31T07:45:29;21.67;64.01
68842;SHT35;55849;48.482;2.332;2023-07-31T07:48:31;21.68;63.91
68842;SHT35;55849;48.482;2.332;2023-07-31T07:51:32;21.69;64.15
68842;SHT35;55849;48.482;2.332;2023-07-31T07:54:34;21.73;63.63
68842;SHT35;55849;48.482;2.332;2023-07-31T07:57:36;21.75;64.10
68842;SHT35;55849;48.482;2.332;2023-07-31T08:00:39;21.77;63.88
68842;SHT35;55849;48.482;2.332;2023-07-31T08:03:40;21.79;63.06
68842;SHT35;55849;48.482;2.332;2023-07-31T08:06:42;21.78;62.94
68842;SHT35;55849;48.482;2.332;2023-07-31T08:09:43;21.79;63.43
68842;SHT35;55849;48.482;2.332;2023-07-31T08:12:45;21.82;63.26
68842;SHT35;55849;48.482;2.332;2023-07-31T08:15:48;21.84;63.59
68842;SHT35;55849;48.482;2.332;2023-07-31T08:18:49;21.92;63.47
68842;SHT35;55849;48.482;2.332;2023-07-31T08:21:51;21.95;62.84
68842;SHT35;55849;48.482;2.332;2023-07-31T08:24:53;22.02;62.59
68842;SHT35;55849;48.482;2.332;2023-07-31T08:27:54;22.06;62.60
68842;SHT35;55849;48.482;2.332;2023-07-31T08:30:57;22.08;62.45
68842;SHT35;55849;48.482;2.332;2023-07-31T08:33:59;22.14;63.28
68842;SHT35;55849;48.482;2.332;2023-07-31T08:37:01;22.14;62.74
68842;SHT35;55849;48.482;2.332;2023-07-31T08:40:04;22.13;64.33
68842;SHT35;55849;48.482;2.332;2023-07-31T08:43:07;22.16;64.13
68842;SHT35;55849;48.482;2.332;2023-07-31T08:46:10;22.17;64.05
68842;SHT35;55849;48.482;2.332;2023-07-31T08:49:12;22.20;65.42
68842;SHT35;55849;48.482;2.332;2023-07-31T08:52:14;22.24;65.32
68842;SHT35;55849;48.482;2.332;2023-07-31T08:55:16;22.27;65.19
68842;SHT35;55849;48.482;2.332;2023-07-31T08:58:18;22.32;64.25
68842;SHT35;55849;48.482;2.332;2023-07-31T09:01:22;22.30;64.02
68842;SHT35;55849;48.482;2.332;2023-07-31T09:04:24;22.34;63.67
68842;SHT35;55849;48.482;2.332;2023-07-31T09:07:27;22.36;63.03
68842;SHT35;55849;48.482;2.332;2023-07-31T09:10:29;22.34;63.38
68842;SHT35;55849;48.482;2.332;2023-07-31T09:13:32;22.37;63.38
68842;SHT35;55849;48.482;2.332;2023-07-31T09:16:35;22.40;63.85
68842;SHT35;55849;48.482;2.332;2023-07-31T09:19:36;22.37;64.29
68842;SHT35;55849;48.482;2.332;2023-07-31T09:22:41;22.36;67.20
68842;SHT35;55849;48.482;2.332;2023-07-31T09:25:44;22.27;67.60
68842;SHT35;55849;48.482;2.332;2023-07-31T09:28:45;22.23;68.75
68842;SHT35;55849;48.482;2.332;2023-07-31T09:31:48;22.19;68.14
68842;SHT35;55849;48.482;2.332;2023-07-31T09:34:50;22.23;69.66
68842;SHT35;55849;48.482;2.332;2023-07-31T09:37:53;22.23;66.58
68842;SHT35;55849;48.482;2.332;2023-07-31T09:40:56;22.21;68.13
68842;SHT35;55849;48.482;2.332;2023-07-31T09:44:00;22.23;68.31
68842;SHT35;55849;48.482;2.332;2023-07-31T09:47:03;22.26;67.91
68842;SHT35;55849;48.482;2.332;2023-07-31T09:50:07;22.29;68.82
68842;SHT35;55849;48.482;2.332;2023-07-31T09:53:10;22.29;68.64
68842;SHT35;55849;48.482;2.332;2023-07-31T09:56:11;22.33;68.70
68842;SHT35;55849;48.482;2.332;2023-07-31T09:59:15;22.37;68.96
68842;SHT35;55849;48.482;2.332;2023-07-31T10:02:21;22.41;68.21
68842;SHT35;55849;48.482;2.332;2023-07-31T10:05:23;22.44;68.85
68842;SHT35;55849;48.482;2.332;2023-07-31T10:08:30;22.44;68.60
68842;SHT35;55849;48.482;2.332;2023-07-31T10:11:43;22.47;69.78
68842;SHT35;55849;48.482;2.332;2023-07-31T10:14:52;22.47;68.51
68842;SHT35;55849;48.482;2.332;2023-07-31T10:17:56;22.43;69.75
68842;SHT35;55849;48.482;2.332;2023-07-31T10:20:58;22.43;69.77
68842;SHT35;55849;48.482;2.332;2023-07-31T10:24:03;22.39;68.72
68842;SHT35;55849;48.482;2.332;2023-07-31T10:27:05;22.36;69.97
68842;SHT35;55849;48.482;2.332;2023-07-31T10:30:11;22.33;70.72
68842;SHT35;55849;48.482;2.332;2023-07-31T10:33:15;22.37;71.05
68842;SHT35;55849;48.482;2.332;2023-07-31T10:36:18;22.37;71.08
68842;SHT35;55849;48.482;2.332;2023-07-31T10:39:40;22.39;70.67
68842;SHT35;55849;48.482;2.332;2023-07-31T10:42:46;22.41;72.25
68842;SHT35;55849;48.482;2.332;2023-07-31T10:45:49;22.43;71.33
68842;SHT35;55849;48.482;2.332;2023-07-31T10:48:57;22.48;69.99
68842;SHT35;55849;48.482;2.332;2023-07-31T10:51:59;22.53;71.27
68842;SHT35;55849;48.482;2.332;2023-07-31T10:55:15;22.54;71.45
68842;SHT35;55849;48.482;2.332;2023-07-31T10:58:18;22.57;69.94
68842;SHT35;55849;48.482;2.332;2023-07-31T11:01:20;22.60;71.44
68842;SHT35;55849;48.482;2.332;2023-07-31T11:04:24;22.62;70.80
68842;SHT35;55849;48.482;2.332;2023-07-31T11:07:46;22.67;70.38
68842;SHT35;55849;48.482;2.332;2023-07-31T11:10:50;22.71;70.87
68842;SHT35;55849;48.482;2.332;2023-07-31T11:13:52;22.72;69.80
68842;SHT35;55849;48.482;2.332;2023-07-31T11:16:54;22.76;71.28
68842;SHT35;55849;48.482;2.332;2023-07-31T11:19:57;22.81;70.64
68842;SHT35;55849;48.482;2.332;2023-07-31T11:23:01;22.82;69.26
68842;SHT35;55849;48.482;2.332;2023-07-31T11:26:05;22.82;70.49
68842;SHT35;55849;48.482;2.332;2023-07-31T11:29:10;22.86;68.78
68842;SHT35;55849;48.482;2.332;2023-07-31T11:32:16;22.85;68.72
68842;SHT35;55849;48.482;2.332;2023-07-31T11:35:19;22.86;70.00
68842;SHT35;55849;48.482;2.332;2023-07-31T11:38:22;22.84;70.34
68842;SHT35;55849;48.482;2.332;2023-07-31T11:41:24;22.82;70.96
68842;SHT35;55849;48.482;2.332;2023-07-31T11:44:26;22.82;70.05
68842;SHT35;55849;48.482;2.332;2023-07-31T11:47:28;22.78;70.80
68842;SHT35;55849;48.482;2.332;2023-07-31T11:50:33;22.81;71.23
68842;SHT35;55849;48.482;2.332;2023-07-31T11:53:40;22.79;70.08
68842;SHT35;55849;48.482;2.332;2023-07-31T11:56:43;22.78;69.47
68842;SHT35;55849;48.482;2.332;2023-07-31T11:59:45;22.84;70.16
68842;SHT35;55849;48.482;2.332;2023-07-31T12:02:47;22.85;69.72
68842;SHT35;55849;48.482;2.332;2023-07-31T12:05:50;22.91;68.76
68842;SHT35;55849;48.482;2.332;2023-07-31T12:08:52;22.89;69.81
68842;SHT35;55849;48.482;2.332;2023-07-31T12:11:53;22.89;69.33
68842;SHT35;55849;48.482;2.332;2023-07-31T12:14:55;22.94;68.33
68842;SHT35;55849;48.482;2.332;2023-07-31T12:17:57;22.94;68.72
68842;SHT35;55849;48.482;2.332;2023-07-31T12:21:01;22.96;67.53
68842;SHT35;55849;48.482;2.332;2023-07-31T12:24:03;22.96;68.68
68842;SHT35;55849;48.482;2.332;2023-07-31T12:27:09;23.00;67.35
68842;SHT35;55849;48.482;2.332;2023-07-31T12:30:26;23.05;68.15
68842;SHT35;55849;48.482;2.332;2023-07-31T12:33:31;23.06;68.38
68842;SHT35;55849;48.482;2.332;2023-07-31T12:36:35;23.09;68.86
68842;SHT35;55849;48.482;2.332;2023-07-31T12:39:36;23.12;68.55
68842;SHT35;55849;48.482;2.332;2023-07-31T12:42:38;23.09;66.92
68842;SHT35;55849;48.482;2.332;2023-07-31T12:45:40;23.10;66.84
68842;SHT35;55849;48.482;2.332;2023-07-31T12:48:41;23.13;66.27
68842;SHT35;55849;48.482;2.332;2023-07-31T12:51:44;23.14;67.31
68842;SHT35;55849;48.482;2.332;2023-07-31T12:54:46;23.19;66.67
68842;SHT35;55849;48.482;2.332;2023-07-31T12:57:47;23.24;66.83
68842;SHT35;55849;48.482;2.332;2023-07-31T13:00:49;23.33;65.52
68842;SHT35;55849;48.482;2.332;2023-07-31T13:03:50;23.38;66.00
68842;SHT35;55849;48.482;2.332;2023-07-31T13:06:53;23.46;65.52
68842;SHT35;55849;48.482;2.332;2023-07-31T13:09:55;23.48;65.15
68842;SHT35;55849;48.482;2.332;2023-07-31T13:12:57;23.50;63.68
68842;SHT35;55849;48.482;2.332;2023-07-31T13:15:58;23.53;63.32
68842;SHT35;55849;48.482;2.332;2023-07-31T13:19:00;23.54;64.00
68842;SHT35;55849;48.482;2.332;2023-07-31T13:22:03;23.58;64.02
68842;SHT35;55849;48.482;2.332;2023-07-31T13:25:06;23.71;64.13
68842;SHT35;55849;48.482;2.332;2023-07-31T13:28:08;23.86;64.36
68842;SHT35;55849;48.482;2.332;2023-07-31T13:31:09;23.92;63.14
68842;SHT35;55849;48.482;2.332;2023-07-31T13:34:11;23.98;62.28
68842;SHT35;55849;48.482;2.332;2023-07-31T13:37:15;24.02;62.55
68842;SHT35;55849;48.482;2.332;2023-07-31T13:40:17;24.02;63.11
68842;SHT35;55849;48.482;2.332;2023-07-31T13:43:18;24.06;62.88
68842;SHT35;55849;48.482;2.332;2023-07-31T13:46:20;24.05;62.58
68842;SHT35;55849;48.482;2.332;2023-07-31T13:49:22;24.06;63.06
68842;SHT35;55849;48.482;2.332;2023-07-31T13:52:25;24.06;61.16
68842;SHT35;55849;48.482;2.332;2023-07-31T13:55:27;24.13;61.70
68842;SHT35;55849;48.482;2.332;2023-07-31T13:58:28;24.16;61.48
68842;SHT35;55849;48.482;2.332;2023-07-31T14:01:30;24.27;61.68
68842;SHT35;55849;48.482;2.332;2023-07-31T14:04:32;24.40;61.20
68842;SHT35;55849;48.482;2.332;2023-07-31T14:07:35;24.48;61.00
68842;SHT35;55849;48.482;2.332;2023-07-31T14:10:36;24.57;61.27
68842;SHT35;55849;48.482;2.332;2023-07-31T14:13:38;24.65;60.39
68842;SHT35;55849;48.482;2.332;2023-07-31T14:16:39;24.71;61.22
68842;SHT35;55849;48.482;2.332;2023-07-31T14:19:41;24.75;61.34
68842;SHT35;55849;48.482;2.332;2023-07-31T14:22:44;24.77;60.64
68842;SHT35;55849;48.482;2.332;2023-07-31T14:25:46;24.79;59.70
68842;SHT35;55849;48.482;2.332;2023-07-31T14:28:47;24.82;59.61
68842;SHT35;55849;48.482;2.332;2023-07-31T14:31:49;24.86;59.34
68842;SHT35;55849;48.482;2.332;2023-07-31T14:34:50;24.87;59.13
68842;SHT35;55849;48.482;2.332;2023-07-31T14:37:53;24.94;60.24
68842;SHT35;55849;48.482;2.332;2023-07-31T14:40:55;25.00;58.73
68842;SHT35;55849;48.482;2.332;2023-07-31T14:43:57;25.11;59.53
68842;SHT35;55849;48.482;2.332;2023-07-31T14:46:59;25.26;59.48
68842;SHT35;55849;48.482;2.332;2023-07-31T14:50:00;25.41;58.99
68842;SHT35;55849;48.482;2.332;2023-07-31T14:53:04;25.53;58.52
68842;SHT35;55849;48.482;2.332;2023-07-31T14:56:05;25.61;57.63
68842;SHT35;55849;48.482;2.332;2023-07-31T14:59:07;25.66;57.82
68842;SHT35;55849;48.482;2.332;2023-07-31T15:02:10;25.70;56.86
68842;SHT35;55849;48.482;2.332;2023-07-31T15:05:12;25.80;57.15
68842;SHT35;55849;48.482;2.332;2023-07-31T15:08:15;25.85;56.79
68842;SHT35;55849;48.482;2.332;2023-07-31T15:11:16;25.89;56.64
68842;SHT35;55849;48.482;2.332;2023-07-31T15:14:19;25.96;56.86
68842;SHT35;55849;48.482;2.332;2023-07-31T15:17:20;26.01;56.35
68842;SHT35;55849;48.482;2.332;2023-07-31T15:20:22;26.05;56.53
68842;SHT35;55849;48.482;2.332;2023-07-31T15:23:25;26.01;56.18
68842;SHT35;55849;48.482;2.332;2023-07-31T15:26:27;25.97;55.13
68842;SHT35;55849;48.482;2.332;2023-07-31T15:29:29;25.97;55.79
68842;SHT35;55849;48.482;2.332;2023-07-31T15:32:31;25.90;55.53
68842;SHT35;55849;48.482;2.332;2023-07-31T15:35:32;25.83;55.68
68842;SHT35;55849;48.482;2.332;2023-07-31T15:38:35;25.75;55.48
68842;SHT35;55849;48.482;2.332;2023-07-31T15:41:38;25.68;56.29
68842;SHT35;55849;48.482;2.332;2023-07-31T15:44:39;25.59;61.37
68842;SHT35;55849;48.482;2.332;2023-07-31T15:47:41;25.45;61.57
68842;SHT35;55849;48.482;2.332;2023-07-31T15:50:43;25.37;61.33
68842;SHT35;55849;48.482;2.332;2023-07-31T15:53:46;25.27;62.14
68842;SHT35;55849;48.482;2.332;2023-07-31T15:56:47;25.16;62.75
68842;SHT35;55849;48.482;2.332;2023-07-31T15:59:49;25.06;62.94
68842;SHT35;55849;48.482;2.332;2023-07-31T16:02:50;25.03;63.05
68842;SHT35;55849;48.482;2.332;2023-07-31T16:05:52;24.97;62.19
68842;SHT35;55849;48.482;2.332;2023-07-31T16:08:55;24.92;65.11
68842;SHT35;55849;48.482;2.332;2023-07-31T16:11:57;24.90;63.14
68842;SHT35;55849;48.482;2.332;2023-07-31T16:14:58;24.86;63.08
68842;SHT35;55849;48.482;2.332;2023-07-31T16:18:00;24.83;62.39
68842;SHT35;55849;48.482;2.332;2023-07-31T16:21:01;24.79;62.01
68842;SHT35;55849;48.482;2.332;2023-07-31T16:24:05;24.79;62.57
68842;SHT35;55849;48.482;2.332;2023-07-31T16:27:07;24.75;62.85
68842;SHT35;55849;48.482;2.332;2023-07-31T16:30:09;24.73;61.32
68842;SHT35;55849;48.482;2.332;2023-07-31T16:33:11;24.75;61.28
68842;SHT35;55849;48.482;2.332;2023-07-31T16:36:12;24.73;61.25
68842;SHT35;55849;48.482;2.332;2023-07-31T16:39:15;24.72;61.97
68842;SHT35;55849;48.482;2.332;2023-07-31T16:42:17;24.68;61.52
68842;SHT35;55849;48.482;2.332;2023-07-31T16:45:19;24.68;61.48
68842;SHT35;55849;48.482;2.332;2023-07-31T16:48:21;24.65;61.54
68842;SHT35;55849;48.482;2.332;2023-07-31T16:51:22;24.64;61.60
68842;SHT35;55849;48.482;2.332;2023-07-31T16:54:25;24.61;62.00
68842;SHT35;55849;48.482;2.332;2023-07-31T16:57:27;24.54;63.25
68842;SHT35;55849;48.482;2.332;2023-07-31T17:00:29;24.51;63.32
68842;SHT35;55849;48.482;2.332;2023-07-31T17:03:30;24.47;65.53
68842;SHT35;55849;48.482;2.332;2023-07-31T17:06:32;24.38;65.41
68842;SHT35;55849;48.482;2.332;2023-07-31T17:09:36;24.34;65.45
68842;SHT35;55849;48.482;2.332;2023-07-31T17:12:37;24.25;67.95
68842;SHT35;55849;48.482;2.332;2023-07-31T17:15:39;24.20;68.46
68842;SHT35;55849;48.482;2.332;2023-07-31T17:18:40;24.07;69.22
68842;SHT35;55849;48.482;2.332;2023-07-31T17:21:42;23.99;70.75
68842;SHT35;55849;48.482;2.332;2023-07-31T17:24:45;23.86;70.97
68842;SHT35;55849;48.482;2.332;2023-07-31T17:27:47;23.75;72.07
68842;SHT35;55849;48.482;2.332;2023-07-31T17:30:48;23.64;72.66
68842;SHT35;55849;48.482;2.332;2023-07-31T17:33:50;23.58;72.77
68842;SHT35;55849;48.482;2.332;2023-07-31T17:36:51;23.50;73.30
68842;SHT35;55849;48.482;2.332;2023-07-31T17:39:54;23.46;74.08
68842;SHT35;55849;48.482;2.332;2023-07-31T17:42:56;23.37;74.33
68842;SHT35;55849;48.482;2.332;2023-07-31T17:45:57;23.33;74.54
68842;SHT35;55849;48.482;2.332;2023-07-31T17:48:59;23.30;74.83
68842;SHT35;55849;48.482;2.332;2023-07-31T17:52:02;23.24;75.07
68842;SHT35;55849;48.482;2.332;2023-07-31T17:55:07;23.17;75.52
68842;SHT35;55849;48.482;2.332;2023-07-31T17:58:09;23.13;75.74
68842;SHT35;55849;48.482;2.332;2023-07-31T18:01:11;23.12;76.07
68842;SHT35;55849;48.482;2.332;2023-07-31T18:04:13;23.07;75.86
68842;SHT35;55849;48.482;2.332;2023-07-31T18:07:15;23.06;76.59
68842;SHT35;55849;48.482;2.332;2023-07-31T18:10:19;22.99;76.50
68842;SHT35;55849;48.482;2.332;2023-07-31T18:13:20;22.95;76.57
68842;SHT35;55849;48.482;2.332;2023-07-31T18:16:22;22.91;76.60
68842;SHT35;55849;48.482;2.332;2023-07-31T18:19:24;22.86;77.65
68842;SHT35;55849;48.482;2.332;2023-07-31T18:22:25;22.85;76.82
68842;SHT35;55849;48.482;2.332;2023-07-31T18:25:28;22.81;76.02
68842;SHT35;55849;48.482;2.332;2023-07-31T18:28:30;22.73;77.22
68842;SHT35;55849;48.482;2.332;2023-07-31T18:31:31;22.72;77.46
68842;SHT35;55849;48.482;2.332;2023-07-31T18:34:33;22.69;77.23
68842;SHT35;55849;48.482;2.332;2023-07-31T18:37:35;22.65;77.11
68842;SHT35;55849;48.482;2.332;2023-07-31T18:40:38;22.61;77.16
68842;SHT35;55849;48.482;2.332;2023-07-31T18:43:39;22.57;77.93
68842;SHT35;55849;48.482;2.332;2023-07-31T18:46:41;22.55;77.36
68842;SHT35;55849;48.482;2.332;2023-07-31T18:49:42;22.53;77.98
68842;SHT35;55849;48.482;2.332;2023-07-31T18:52:44;22.54;78.56
68842;SHT35;55849;48.482;2.332;2023-07-31T18:55:48;22.53;77.85
68842;SHT35;55849;48.482;2.332;2023-07-31T18:58:49;22.51;78.25
68842;SHT35;55849;48.482;2.332;2023-07-31T19:01:52;22.51;78.78
68842;SHT35;55849;48.482;2.332;2023-07-31T19:04:53;22.50;78.72
68842;SHT35;55849;48.482;2.332;2023-07-31T19:07:55;22.47;77.85
68842;SHT35;55849;48.482;2.332;2023-07-31T19:11:01;22.44;78.73
68842;SHT35;55849;48.482;2.332;2023-07-31T19:14:02;22.41;78.95